Time;durP1;ratioP1;P1;durP2;ratioP2;P2;SDS_P1;SDS_P2;PMS_P1;PMS_P2;Temp;Humidity;BMP_temperature;BMP_pressure;BME280_temperature;BME280_humidity;BME280_pressure;Samples;Min_cycle;Max_cycle;Signal;HPM_P1;HPM_P2
2021/01/29 00:00:17;;;;;;;11.50;5.37;;;10.80;99.90;;;;;;6279815;22;20161;-92
2021/01/29 00:02:44;;;;;;;10.37;5.17;;;10.70;99.90;;;;;;6279663;22;20272;-93
2021/01/29 00:05:13;;;;;;;9.03;5.30;;;10.70;99.90;;;;;;6279382;22;20223;-94
2021/01/29 00:07:41;;;;;;;15.43;5.77;;;10.70;99.90;;;;;;6279690;22;20226;-92
2021/01/29 00:10:09;;;;;;;12.03;5.73;;;10.80;99.90;;;;;;6279222;22;20177;-93
2021/01/29 00:12:35;;;;;;;9.80;5.67;;;10.80;99.90;;;;;;6278682;22;20169;-93
2021/01/29 00:15:02;;;;;;;11.03;5.87;;;10.80;99.90;;;;;;6279093;22;20328;-93
2021/01/29 00:17:28;;;;;;;11.03;5.70;;;10.80;99.90;;;;;;6279161;22;20257;-92
2021/01/29 00:19:55;;;;;;;9.57;5.80;;;10.90;99.90;;;;;;6279732;22;20246;-93
2021/01/29 00:22:22;;;;;;;12.07;5.47;;;10.90;99.90;;;;;;6252628;22;20173;-93
2021/01/29 00:24:48;;;;;;;12.57;5.20;;;10.90;99.90;;;;;;6252629;22;20197;-93
2021/01/29 00:27:15;;;;;;;7.47;4.83;;;11.00;99.90;;;;;;6278838;22;20553;-92
2021/01/29 00:29:41;;;;;;;11.37;5.27;;;11.00;99.90;;;;;;6279789;22;20256;-92
2021/01/29 00:32:08;;;;;;;11.33;5.30;;;11.00;99.90;;;;;;6279646;22;20165;-92
2021/01/29 00:34:34;;;;;;;7.67;4.37;;;11.00;99.90;;;;;;6279217;22;20277;-94
2021/01/29 00:37:01;;;;;;;11.07;4.70;;;10.90;99.90;;;;;;6279682;22;20493;-93
2021/01/29 00:39:28;;;;;;;13.30;5.00;;;10.90;99.90;;;;;;6280089;22;20263;-92
2021/01/29 00:41:54;;;;;;;11.80;4.40;;;10.90;99.90;;;;;;6279077;22;20248;-94
2021/01/29 00:44:20;;;;;;;8.63;4.37;;;10.90;99.90;;;;;;6279520;22;20189;-94
2021/01/29 00:46:47;;;;;;;7.90;4.27;;;10.90;99.90;;;;;;6279019;22;20174;-92
2021/01/29 00:49:13;;;;;;;7.18;4.60;;;10.90;99.90;;;;;;6278619;22;20763;-94
2021/01/29 00:51:40;;;;;;;6.07;3.93;;;10.90;99.90;;;;;;6278456;22;20248;-93
2021/01/29 00:54:06;;;;;;;4.10;3.70;;;11.00;99.90;;;;;;6278781;22;20661;-93
2021/01/29 00:56:34;;;;;;;6.93;3.77;;;11.00;99.90;;;;;;6278845;22;20248;-92
2021/01/29 00:59:00;;;;;;;4.67;3.77;;;11.00;99.90;;;;;;6279170;22;20243;-93
2021/01/29 01:01:26;;;;;;;5.47;3.60;;;11.10;99.90;;;;;;6279213;22;20167;-92
2021/01/29 01:03:53;;;;;;;5.13;3.57;;;11.10;99.90;;;;;;6279064;22;20169;-92
2021/01/29 01:06:19;;;;;;;7.23;3.80;;;11.10;99.90;;;;;;6278453;22;20197;-92
2021/01/29 01:08:46;;;;;;;3.70;3.30;;;11.20;99.90;;;;;;6278999;22;20215;-92
2021/01/29 01:11:12;;;;;;;5.00;3.37;;;11.20;99.90;;;;;;6278873;22;20249;-92
2021/01/29 01:13:39;;;;;;;5.27;3.70;;;11.20;99.90;;;;;;6278978;22;20544;-92
2021/01/29 01:16:06;;;;;;;7.10;3.13;;;11.20;99.90;;;;;;6278766;22;20653;-93
2021/01/29 01:18:32;;;;;;;3.33;3.03;;;11.20;99.90;;;;;;6278514;22;20203;-94
2021/01/29 01:20:59;;;;;;;5.40;3.00;;;11.20;99.90;;;;;;6279010;22;20208;-93
2021/01/29 01:23:25;;;;;;;4.53;3.00;;;11.30;99.90;;;;;;6278580;22;20174;-93
2021/01/29 01:25:53;;;;;;;4.43;2.73;;;11.30;99.90;;;;;;6279058;22;20360;-94
2021/01/29 01:28:19;;;;;;;5.50;3.10;;;11.20;99.90;;;;;;6278621;22;20244;-93
2021/01/29 01:30:53;;;;;;;4.77;2.73;;;11.30;99.90;;;;;;6279077;22;20492;-93
2021/01/29 01:33:19;;;;;;;3.27;2.97;;;11.30;99.90;;;;;;6278273;22;20173;-94
2021/01/29 01:35:46;;;;;;;4.23;3.23;;;11.30;99.90;;;;;;6279034;22;20726;-94
2021/01/29 01:38:12;;;;;;;4.67;2.80;;;11.20;99.90;;;;;;6278360;22;20205;-93
2021/01/29 01:40:41;;;;;;;3.90;2.30;;;11.20;99.90;;;;;;6278542;22;20166;-93
2021/01/29 01:43:08;;;;;;;3.20;2.70;;;11.20;99.90;;;;;;6278460;22;20624;-94
2021/01/29 01:45:58;;;;;;;3.37;2.93;;;11.20;99.90;;;;;;6278208;22;20195;-93
2021/01/29 01:48:44;;;;;;;3.30;3.10;;;11.20;99.90;;;;;;6279386;22;20234;-94
2021/01/29 01:51:18;;;;;;;5.47;2.73;;;11.10;99.90;;;;;;6259108;22;20248;-93
2021/01/29 01:53:48;;;;;;;3.10;2.60;;;11.20;99.90;;;;;;6278786;22;20169;-93
2021/01/29 01:56:18;;;;;;;2.40;2.07;;;11.20;99.90;;;;;;6277756;22;20169;-92
2021/01/29 01:58:51;;;;;;;3.97;2.20;;;11.30;99.90;;;;;;6251398;22;20197;-92
2021/01/29 02:01:21;;;;;;;2.27;2.10;;;11.30;99.90;;;;;;6278288;22;20249;-94
2021/01/29 02:03:48;;;;;;;2.10;1.90;;;11.30;99.90;;;;;;6277333;22;20244;-94
2021/01/29 02:06:15;;;;;;;2.13;1.93;;;11.30;99.90;;;;;;6277872;22;20197;-94
2021/01/29 02:08:45;;;;;;;3.20;1.60;;;11.30;99.90;;;;;;6278856;22;20263;-94
2021/01/29 02:11:13;;;;;;;1.60;1.50;;;11.20;99.90;;;;;;6278391;22;20174;-93
2021/01/29 02:13:39;;;;;;;2.17;1.40;;;11.20;99.90;;;;;;6278382;22;20236;-94
2021/01/29 02:16:15;;;;;;;1.93;1.50;;;11.30;99.90;;;;;;6278178;22;20277;-93
2021/01/29 02:18:55;;;;;;;1.60;1.40;;;11.30;99.90;;;;;;6278719;22;20193;-93
2021/01/29 02:21:50;;;;;;;1.20;1.10;;;11.30;99.90;;;;;;6277793;22;20201;-94
2021/01/29 02:24:53;;;;;;;1.60;1.10;;;11.30;99.90;;;;;;6278111;22;20682;-94
2021/01/29 02:27:44;;;;;;;1.40;1.10;;;11.20;99.90;;;;;;6278065;22;20211;-93
2021/01/29 02:30:46;;;;;;;1.40;1.30;;;11.30;99.90;;;;;;6277662;22;20173;-93
2021/01/29 02:33:46;;;;;;;1.40;1.20;;;11.30;99.90;;;;;;6277643;22;20173;-93
2021/01/29 02:42:09;;;;;;;1.50;1.40;;;11.30;99.90;;;;;;6220876;22;20510;-94
2021/01/29 02:44:48;;;;;;;1.83;0.93;;;11.40;99.90;;;;;;6216545;23;20273;-91
2021/01/29 03:45:02;;;;;;;1.37;1.23;;;10.80;99.90;;;;;;6240143;22;20225;-89
2021/01/29 04:13:35;;;;;;;5.70;1.77;;;10.70;99.90;;;;;;6242667;23;20189;-89
2021/01/29 04:16:12;;;;;;;4.77;1.90;;;10.70;99.90;;;;;;6213780;23;20198;-90
2021/01/29 04:31:06;;;;;;;8.40;1.97;;;10.70;99.90;;;;;;6217413;23;20207;-89
2021/01/29 04:42:55;;;;;;;6.93;1.43;;;10.60;99.90;;;;;;6238557;23;20207;-89
2021/01/29 04:45:56;;;;;;;4.73;1.50;;;10.60;99.90;;;;;;6241610;23;20211;-90
2021/01/29 04:48:49;;;;;;;2.50;1.50;;;10.60;99.90;;;;;;6241151;23;20184;-89
2021/01/29 05:15:42;;;;;;;16.17;2.90;;;10.40;99.90;;;;;;6227829;23;20232;-88
2021/01/29 05:18:58;;;;;;;18.63;3.40;;;10.40;99.90;;;;;;6232020;22;20225;-88
2021/01/29 09:25:01;;;;;;;32.40;5.50;;;10.90;99.90;;;;;;6299724;22;20204;-87
2021/01/29 09:28:08;;;;;;;32.57;7.23;;;11.00;99.90;;;;;;6300391;22;20226;-87
2021/01/29 09:30:50;;;;;;;25.37;5.63;;;10.80;99.90;;;;;;6296591;22;20173;-87
2021/01/29 09:33:31;;;;;;;32.47;6.53;;;10.90;99.90;;;;;;6298228;22;20154;-87
2021/01/29 09:36:07;;;;;;;32.00;5.97;;;11.00;99.90;;;;;;6271399;22;20201;-87
2021/01/29 09:38:38;;;;;;;36.50;6.37;;;11.00;99.90;;;;;;6296965;22;20200;-87
2021/01/29 09:41:24;;;;;;;32.13;6.20;;;11.10;99.90;;;;;;6300707;22;20256;-86
2021/01/29 09:49:21;;;;;;;30.43;6.80;;;11.20;99.90;;;;;;6268083;23;20197;-86
2021/01/29 09:52:07;;;;;;;29.37;6.17;;;11.20;99.90;;;;;;6268701;23;20256;-87
2021/01/29 09:54:49;;;;;;;30.37;6.23;;;11.20;99.90;;;;;;6267098;23;20225;-87
2021/01/29 09:57:26;;;;;;;30.17;5.40;;;11.20;99.90;;;;;;6266474;23;20173;-87
2021/01/29 10:00:02;;;;;;;34.03;5.73;;;11.20;99.90;;;;;;6242736;23;20698;-86
2021/01/29 10:02:38;;;;;;;29.60;6.47;;;11.30;99.90;;;;;;6267603;23;20180;-87
2021/01/29 10:45:47;;;;;;;29.83;5.17;;;11.40;99.90;;;;;;6302345;22;20265;-89
2021/01/29 11:44:44;;;;;;;31.50;6.65;;;9.80;99.90;;;;;;6234808;22;20389;-87
2021/01/29 11:47:35;;;;;;;37.37;6.23;;;9.90;99.90;;;;;;6210028;23;20209;-88
2021/01/29 11:53:11;;;;;;;24.27;5.13;;;10.00;99.90;;;;;;6304345;22;20255;-87
2021/01/29 12:19:10;;;;;;;29.90;5.47;;;11.50;99.90;;;;;;6238923;22;20208;31
2021/01/29 12:30:50;;;;;;;24.53;5.63;;;11.20;99.90;;;;;;6247122;22;20211;-87
2021/01/29 12:35:56;;;;;;;26.93;5.40;;;11.10;99.90;;;;;;6296035;22;20202;-86
2021/01/29 12:41:48;;;;;;;25.00;4.40;;;10.90;99.90;;;;;;6243711;22;20214;-88
2021/01/29 12:53:03;;;;;;;19.27;3.87;;;10.90;99.90;;;;;;6240603;22;20209;-87
2021/01/29 12:55:38;;;;;;;21.27;3.80;;;10.90;99.90;;;;;;6234652;23;20250;-86
2021/01/29 13:03:37;;;;;;;17.97;4.27;;;11.10;99.90;;;;;;6236889;22;20212;-88
2021/01/29 13:06:31;;;;;;;21.13;4.00;;;11.10;99.90;;;;;;6237268;23;20194;-87
2021/01/29 13:09:32;;;;;;;18.10;3.73;;;10.90;99.90;;;;;;6212625;23;20179;-87
2021/01/29 13:12:30;;;;;;;17.40;3.20;;;10.80;99.90;;;;;;6237115;23;20173;-87
2021/01/29 13:18:16;;;;;;;20.30;3.60;;;10.60;99.90;;;;;;6237775;22;20225;31
2021/01/29 14:27:54;;;;;;;17.23;3.03;;;10.60;99.90;;;;;;6228517;22;20218;-93
2021/01/29 14:36:04;;;;;;;24.03;3.73;;;10.60;99.90;;;;;;6218843;22;20209;-94
2021/01/29 14:39:09;;;;;;;16.40;4.03;;;10.70;99.90;;;;;;6217546;23;20279;-95
2021/01/29 14:42:03;;;;;;;19.27;3.40;;;10.70;99.90;;;;;;6217350;23;20166;-95
2021/01/29 14:44:51;;;;;;;19.13;3.40;;;10.60;99.90;;;;;;6217595;23;20191;-93
2021/01/29 15:10:53;;;;;;;11.40;3.87;;;10.10;99.90;;;;;;6241960;22;20225;-88
2021/01/29 15:32:41;;;;;;;18.73;5.17;;;9.80;99.90;;;;;;6230383;22;20221;-87
2021/01/29 15:35:43;;;;;;;14.80;4.93;;;9.90;99.90;;;;;;6236610;23;20194;-89
2021/01/29 15:38:15;;;;;;;12.03;4.87;;;9.80;99.90;;;;;;6235062;23;20194;-87
2021/01/29 15:59:17;;;;;;;16.83;5.77;;;9.80;99.90;;;;;;6177434;23;20191;-87
2021/01/29 16:02:25;;;;;;;16.73;5.67;;;9.80;99.90;;;;;;6173092;23;20167;-88
2021/01/29 16:41:30;;;;;;;20.10;4.80;;;9.70;99.90;;;;;;6241509;22;20311;31
2021/01/29 16:52:43;;;;;;;19.93;4.27;;;9.60;99.90;;;;;;6242690;22;20213;31
2021/01/29 16:55:19;;;;;;;24.03;5.50;;;9.60;99.90;;;;;;6210615;23;20207;-87
2021/01/29 16:58:15;;;;;;;20.27;5.03;;;9.60;99.90;;;;;;6211523;23;20450;-87
2021/01/29 17:03:39;;;;;;;17.47;4.17;;;9.70;99.90;;;;;;6181951;23;20184;-86
2021/01/29 17:09:18;;;;;;;16.50;3.90;;;9.70;99.90;;;;;;6210066;23;20201;-87
2021/01/29 17:12:01;;;;;;;21.53;4.73;;;9.70;99.90;;;;;;6184503;23;20186;-86
2021/01/29 17:15:01;;;;;;;18.50;3.97;;;9.70;99.90;;;;;;6211464;23;20186;-88
2021/01/29 17:17:35;;;;;;;15.80;3.97;;;9.60;99.90;;;;;;6210377;23;20187;-88
2021/01/29 17:20:12;;;;;;;16.97;3.57;;;9.60;99.90;;;;;;6204860;23;20282;-88
2021/01/29 17:22:48;;;;;;;17.80;4.27;;;9.60;99.90;;;;;;6210428;23;20198;-87
2021/01/29 17:25:38;;;;;;;14.20;4.30;;;9.70;99.90;;;;;;6209719;23;20220;-88
2021/01/29 17:28:15;;;;;;;22.10;4.10;;;9.70;99.90;;;;;;6209770;23;20215;-87
2021/01/29 17:31:18;;;;;;;16.27;3.97;;;9.70;99.90;;;;;;6209656;23;20201;-87
2021/01/29 17:33:52;;;;;;;14.43;3.70;;;9.80;99.90;;;;;;6210056;23;20175;-87
2021/01/29 17:36:34;;;;;;;16.27;3.73;;;9.70;99.90;;;;;;6209168;23;20174;-87
2021/01/29 17:39:35;;;;;;;16.70;4.03;;;9.80;99.90;;;;;;6211146;23;20707;-86
2021/01/29 17:45:34;;;;;;;14.27;3.50;;;9.70;99.90;;;;;;6207771;23;20198;-87
2021/01/29 17:48:31;;;;;;;13.77;3.70;;;9.60;99.90;;;;;;6208868;23;20191;-87
2021/01/29 17:53:46;;;;;;;19.50;4.07;;;9.60;99.90;;;;;;6301102;22;20231;-87
2021/01/29 17:56:39;;;;;;;14.40;2.93;;;9.60;99.90;;;;;;6271743;23;20177;-87
2021/01/29 17:59:08;;;;;;;13.77;3.50;;;9.60;99.90;;;;;;6270840;22;20197;-86
2021/01/29 18:02:01;;;;;;;10.77;3.33;;;9.60;99.90;;;;;;6271362;23;20184;-87
2021/01/29 18:10:33;;;;;;;19.13;4.00;;;9.30;99.90;;;;;;6237228;23;20209;-86
2021/01/29 18:13:18;;;;;;;12.00;4.60;;;9.30;99.90;;;;;;6240409;23;20174;-87
2021/01/29 18:15:58;;;;;;;13.90;4.27;;;9.30;99.90;;;;;;6236962;23;20204;-87
2021/01/29 18:18:43;;;;;;;13.50;4.27;;;9.30;99.90;;;;;;6238609;22;20228;-86
2021/01/29 18:21:51;;;;;;;19.33;5.07;;;9.30;99.90;;;;;;6222075;22;20201;-87
2021/01/29 18:24:26;;;;;;;13.80;4.53;;;9.30;99.90;;;;;;6233808;22;20213;-86
2021/01/29 18:26:56;;;;;;;13.73;4.00;;;9.30;99.90;;;;;;6180426;23;20206;-86
2021/01/29 18:29:30;;;;;;;10.57;3.37;;;9.40;99.90;;;;;;6217253;23;20237;-86
2021/01/29 18:32:00;;;;;;;13.50;4.00;;;9.40;99.90;;;;;;6233705;23;20202;-87
2021/01/29 18:34:42;;;;;;;15.37;4.20;;;9.40;99.90;;;;;;6235442;23;20194;-85
2021/01/29 18:37:13;;;;;;;12.17;3.87;;;9.40;99.90;;;;;;6211615;23;20244;-87
2021/01/29 18:39:47;;;;;;;10.57;3.20;;;9.50;99.90;;;;;;6237003;23;20201;-86
2021/01/29 18:42:23;;;;;;;12.10;4.00;;;9.40;99.90;;;;;;6238653;23;20175;-86
2021/01/29 18:48:11;;;;;;;12.97;3.63;;;9.50;99.90;;;;;;6236610;22;20174;-88
2021/01/29 18:51:00;;;;;;;10.37;3.40;;;9.50;99.90;;;;;;6212565;23;20178;-87
2021/01/29 18:56:48;;;;;;;13.13;3.93;;;9.60;99.90;;;;;;6240343;23;20212;-87
2021/01/29 18:59:20;;;;;;;14.80;5.13;;;9.60;99.90;;;;;;6213516;23;20238;-88
2021/01/29 19:02:16;;;;;;;16.10;4.20;;;9.60;99.90;;;;;;6237264;23;20163;-88
2021/01/29 19:14:20;;;;;;;12.83;3.83;;;9.70;99.90;;;;;;6208583;22;20214;-88
2021/01/29 19:20:11;;;;;;;13.67;4.47;;;9.60;99.90;;;;;;6194279;22;20218;-88
2021/01/29 19:23:08;;;;;;;11.77;4.10;;;9.60;99.90;;;;;;6221211;23;20206;-87
2021/01/29 19:25:44;;;;;;;9.40;3.90;;;9.60;99.90;;;;;;6238835;22;20225;-87
2021/01/29 19:28:17;;;;;;;11.53;3.90;;;9.50;99.90;;;;;;6236674;23;20202;-87
2021/01/29 19:30:47;;;;;;;14.53;4.10;;;9.60;99.90;;;;;;6212872;23;20182;-87
2021/01/29 19:36:22;;;;;;;8.33;3.47;;;9.70;99.90;;;;;;6238188;22;20213;-87
2021/01/29 19:47:45;;;;;;;10.40;3.40;;;9.80;99.90;;;;;;6265907;22;20189;-85
2021/01/29 19:52:53;;;;;;;9.60;3.90;;;9.80;99.90;;;;;;6240724;22;20213;-87
2021/01/29 20:01:40;;;;;;;10.60;3.97;;;10.00;99.90;;;;;;6180431;22;20205;-87
2021/01/29 20:04:35;;;;;;;11.57;3.90;;;10.00;99.90;;;;;;6215672;23;20259;-86
2021/01/29 20:31:03;;;;;;;9.47;3.53;;;10.00;99.90;;;;;;6239324;22;20236;-89
2021/01/29 20:38:55;;;;;;;12.53;3.30;;;10.00;99.90;;;;;;6231485;22;20225;-85
2021/01/29 20:44:06;;;;;;;8.90;3.30;;;10.20;99.90;;;;;;6304797;22;20213;-87
2021/01/29 20:46:59;;;;;;;7.77;3.60;;;10.00;99.90;;;;;;6286631;22;20197;-87
2021/01/29 20:49:30;;;;;;;11.57;3.33;;;9.90;99.90;;;;;;6243087;22;20229;-86
2021/01/29 20:54:45;;;;;;;8.30;3.80;;;9.70;99.90;;;;;;6272503;22;20192;-87
2021/01/29 21:13:36;;;;;;;6.87;2.90;;;9.70;99.90;;;;;;6239585;22;20194;-86
2021/01/29 21:16:21;;;;;;;9.97;3.47;;;9.70;99.90;;;;;;6210980;23;20190;-86
2021/01/29 21:18:52;;;;;;;11.20;3.23;;;9.60;99.90;;;;;;6212731;23;20186;-86
2021/01/29 21:21:20;;;;;;;5.90;2.77;;;9.60;99.90;;;;;;6213476;23;20182;-86
2021/01/29 21:23:54;;;;;;;6.80;2.83;;;9.50;99.90;;;;;;6234367;22;20282;-87
2021/01/29 21:26:25;;;;;;;12.07;2.90;;;9.30;99.90;;;;;;6216031;23;20179;-86
2021/01/29 21:29:38;;;;;;;4.87;2.57;;;9.30;99.90;;;;;;6241439;22;20194;-87
2021/01/29 21:35:52;;;;;;;11.13;3.13;;;9.20;99.90;;;;;;6243395;22;20178;-87
2021/01/29 21:41:36;;;;;;;8.50;3.80;;;9.10;99.90;;;;;;6237205;22;20194;-87
2021/01/29 21:53:25;;;;;;;13.17;4.17;;;9.30;99.90;;;;;;6254057;22;20194;-87
2021/01/29 21:56:19;;;;;;;16.17;4.17;;;9.50;99.90;;;;;;6207246;23;20175;-87
2021/01/29 21:58:50;;;;;;;7.23;3.93;;;9.40;99.90;;;;;;6209143;23;20176;-87
2021/01/29 22:01:27;;;;;;;13.60;4.10;;;9.40;99.90;;;;;;6182480;23;20183;-86
2021/01/29 22:04:22;;;;;;;11.97;4.30;;;9.30;99.90;;;;;;6210821;22;20212;-87
2021/01/29 22:07:04;;;;;;;15.30;4.70;;;9.30;99.90;;;;;;6239336;23;20166;-86
2021/01/29 22:09:35;;;;;;;14.07;5.07;;;9.30;99.90;;;;;;6239979;23;20178;-86
2021/01/29 22:12:21;;;;;;;15.67;4.10;;;9.40;99.90;;;;;;6231025;23;20179;-87
2021/01/29 22:23:10;;;;;;;13.77;4.07;;;9.40;99.90;;;;;;6238642;22;20202;-86
2021/01/29 22:28:39;;;;;;;17.30;4.20;;;9.50;99.90;;;;;;6242615;22;20213;-86
2021/01/29 22:31:30;;;;;;;18.47;4.23;;;9.50;99.90;;;;;;6211660;23;20182;-87
2021/01/29 22:39:36;;;;;;;18.40;4.07;;;9.50;99.90;;;;;;6231781;23;20195;-86
2021/01/29 22:42:23;;;;;;;15.13;3.60;;;9.50;99.90;;;;;;6234606;23;20233;-86
2021/01/29 22:45:13;;;;;;;17.37;4.60;;;9.50;99.90;;;;;;6234234;23;20233;-86
2021/01/29 22:47:44;;;;;;;16.17;4.00;;;9.40;99.90;;;;;;6235181;23;20178;-86
2021/01/29 22:50:19;;;;;;;17.03;4.13;;;9.40;99.90;;;;;;6232744;22;20214;-86
2021/01/29 22:55:50;;;;;;;17.33;4.47;;;9.40;99.90;;;;;;6235002;23;20194;-86
2021/01/29 22:58:35;;;;;;;15.53;4.40;;;9.40;99.90;;;;;;6213158;23;20205;-87
2021/01/29 23:03:49;;;;;;;17.83;4.37;;;9.20;99.90;;;;;;6246490;22;20209;-83
2021/01/29 23:21:15;;;;;;;18.87;4.10;;;9.20;99.90;;;;;;6266403;23;20201;-87
2021/01/29 23:23:51;;;;;;;23.83;4.87;;;9.20;99.90;;;;;;6268925;23;20182;-87
2021/01/29 23:29:18;;;;;;;16.97;4.67;;;9.20;99.90;;;;;;6240096;22;20213;-86
2021/01/29 23:32:38;;;;;;;21.87;4.20;;;9.20;99.90;;;;;;6240699;23;20179;-86
2021/01/29 23:41:08;;;;;;;17.50;3.70;;;9.30;99.90;;;;;;6231949;22;20218;-86
2021/01/29 23:44:21;;;;;;;13.43;3.03;;;9.30;99.90;;;;;;6210682;23;20175;-86
2021/01/29 23:53:11;;;;;;;19.60;3.10;;;9.20;99.90;;;;;;6216839;23;20175;-86
2021/01/29 23:55:47;;;;;;;10.93;3.37;;;9.20;99.90;;;;;;6240470;23;20191;-86
2021/01/29 23:58:30;;;;;;;12.93;3.30;;;9.20;99.90;;;;;;6190473;23;20182;-86
